createdAt,value
2018-08-13T00:01:27.521Z,19.34
2018-08-13T00:03:55.749Z,19.36
2018-08-13T00:06:23.993Z,19.46
2018-08-13T00:08:52.266Z,19.47
2018-08-13T00:11:20.517Z,19.34
2018-08-13T00:13:48.776Z,19.21
2018-08-13T00:16:16.994Z,19.32
2018-08-13T00:18:45.249Z,19.24
2018-08-13T00:21:13.505Z,19.07
2018-08-13T00:23:41.721Z,19.10
2018-08-13T00:26:09.963Z,19.28
2018-08-13T00:28:38.193Z,19.27
2018-08-13T00:31:06.550Z,19.42
2018-08-13T00:33:34.793Z,19.32
2018-08-13T00:36:03.041Z,19.24
2018-08-13T00:38:31.306Z,19.20
2018-08-13T00:41:00.989Z,19.04
2018-08-13T00:43:29.234Z,19.04
2018-08-13T00:45:57.463Z,19.04
2018-08-13T00:48:25.725Z,18.86
2018-08-13T00:50:53.944Z,18.90
2018-08-13T00:53:22.221Z,18.99
2018-08-13T00:55:50.465Z,19.13
2018-08-13T00:58:18.745Z,18.86
2018-08-13T01:00:46.981Z,18.89
2018-08-13T01:03:15.241Z,18.96
2018-08-13T01:05:43.481Z,19.03
2018-08-13T01:08:11.710Z,18.99
2018-08-13T01:10:39.926Z,19.01
2018-08-13T01:13:08.189Z,18.79
2018-08-13T01:15:36.443Z,19.02
2018-08-13T01:18:05.581Z,18.84
2018-08-13T01:20:33.821Z,18.90
2018-08-13T01:23:02.045Z,19.10
2018-08-13T01:25:30.285Z,18.93
2018-08-13T01:27:58.493Z,18.89
2018-08-13T01:30:26.729Z,18.82
2018-08-13T01:32:54.973Z,19.00
2018-08-13T01:35:23.189Z,18.75
2018-08-13T01:37:51.421Z,18.83
2018-08-13T01:40:19.636Z,18.76
2018-08-13T01:42:47.900Z,18.75
2018-08-13T01:45:16.149Z,18.78
2018-08-13T01:47:44.393Z,18.75
2018-08-13T01:50:13.268Z,18.75
2018-08-13T01:52:41.549Z,18.56
2018-08-13T01:55:10.675Z,18.65
2018-08-13T01:57:38.945Z,18.57
2018-08-13T02:00:10.429Z,18.67
2018-08-13T02:02:38.681Z,18.82
2018-08-13T02:05:07.025Z,18.83
2018-08-13T02:07:35.401Z,18.69
2018-08-13T02:10:03.643Z,18.70
2018-08-13T02:12:31.925Z,18.61
2018-08-13T02:15:00.155Z,18.81
2018-08-13T02:17:28.417Z,18.71
2018-08-13T02:19:56.662Z,18.55
2018-08-13T02:22:24.937Z,18.55
2018-08-13T02:24:53.179Z,18.69
2018-08-13T02:27:21.457Z,18.55
2018-08-13T02:29:49.689Z,18.53
2018-08-13T02:32:17.932Z,18.55
2018-08-13T02:34:46.143Z,18.71
2018-08-13T02:37:14.383Z,18.75
2018-08-13T02:39:42.639Z,18.82
2018-08-13T02:42:10.896Z,18.93
2018-08-13T02:44:39.149Z,19.06
2018-08-13T02:47:07.401Z,19.07
2018-08-13T02:49:35.629Z,19.11
2018-08-13T02:52:04.271Z,19.25
2018-08-13T02:54:32.508Z,19.06
2018-08-13T02:57:00.759Z,19.21
2018-08-13T02:59:28.993Z,19.33
2018-08-13T03:01:57.230Z,19.23
2018-08-13T03:04:25.485Z,19.10
2018-08-13T03:06:57.921Z,19.32
2018-08-13T03:09:26.142Z,19.37
2018-08-13T03:11:54.361Z,19.34
2018-08-13T03:14:22.605Z,19.58
2018-08-13T03:16:50.861Z,19.57
2018-08-13T03:19:19.082Z,19.68
2018-08-13T03:21:47.355Z,19.74
2018-08-13T03:24:15.590Z,19.75
2018-08-13T03:26:43.875Z,19.88
2018-08-13T03:29:12.078Z,19.70
2018-08-13T03:31:40.333Z,20.00
2018-08-13T03:34:08.545Z,19.89
2018-08-13T03:36:37.253Z,19.73
2018-08-13T03:39:08.721Z,19.85
2018-08-13T03:41:36.973Z,19.64
2018-08-13T03:44:05.237Z,19.81
2018-08-13T03:46:33.497Z,19.78
2018-08-13T03:49:01.721Z,19.95
2018-08-13T03:51:30.010Z,19.76
2018-08-13T03:53:58.241Z,19.82
2018-08-13T03:56:26.469Z,19.87
2018-08-13T03:58:54.733Z,19.89
2018-08-13T04:01:22.985Z,19.73
2018-08-13T04:03:51.253Z,19.91
2018-08-13T04:06:19.473Z,19.91
2018-08-13T04:08:47.713Z,19.98
2018-08-13T04:11:15.977Z,20.01
2018-08-13T04:13:44.217Z,19.92
2018-08-13T04:16:12.481Z,20.10
2018-08-13T04:18:40.730Z,20.05
2018-08-13T04:21:08.980Z,19.71
2018-08-13T04:23:37.221Z,20.04
2018-08-13T04:26:07.772Z,20.30
2018-08-13T04:28:35.997Z,21.32
2018-08-13T04:31:04.225Z,20.75
2018-08-13T04:33:32.457Z,19.76
2018-08-13T04:36:00.686Z,21.13
2018-08-13T04:38:28.912Z,20.56
2018-08-13T04:40:57.153Z,20.96
2018-08-13T04:43:25.362Z,20.36
2018-08-13T04:45:53.581Z,19.72
2018-08-13T04:48:21.813Z,19.60
2018-08-13T04:50:50.053Z,19.29
2018-08-13T04:53:18.265Z,19.49
2018-08-13T04:55:46.666Z,18.94
2018-08-13T04:58:14.915Z,19.00
2018-08-13T05:00:43.133Z,20.72
2018-08-13T05:03:11.385Z,19.88
2018-08-13T05:05:39.601Z,19.40
2018-08-13T05:08:07.977Z,18.90
2018-08-13T05:10:36.190Z,19.40
2018-08-13T05:13:04.476Z,19.77
2018-08-13T05:15:32.710Z,19.97
2018-08-13T05:18:00.953Z,19.78
2018-08-13T05:20:29.177Z,20.00
2018-08-13T05:22:57.443Z,19.57
2018-08-13T05:25:25.674Z,19.37
2018-08-13T05:27:53.917Z,19.31
2018-08-13T05:30:22.296Z,19.20
2018-08-13T05:32:50.505Z,19.25
2018-08-13T05:35:18.741Z,19.03
2018-08-13T05:37:46.997Z,18.79
2018-08-13T05:40:15.340Z,18.60
2018-08-13T05:42:43.564Z,18.34
2018-08-13T05:45:11.784Z,18.17
2018-08-13T05:47:40.275Z,18.49
2018-08-13T05:50:09.896Z,17.93
2018-08-13T05:52:38.170Z,17.97
2018-08-13T05:55:06.600Z,18.16
2018-08-13T05:57:34.837Z,18.29
2018-08-13T06:00:03.185Z,18.28
2018-08-13T06:02:31.434Z,18.38
2018-08-13T06:04:59.665Z,18.08
2018-08-13T06:07:27.890Z,19.02
2018-08-13T06:09:56.101Z,19.66
2018-08-13T06:12:24.350Z,19.36
2018-08-13T06:14:52.577Z,19.48
2018-08-13T06:17:20.859Z,18.84
2018-08-13T06:19:49.093Z,19.28
2018-08-13T06:22:17.342Z,18.88
2018-08-13T06:24:45.609Z,18.74
2018-08-13T06:27:13.910Z,18.51
2018-08-13T06:29:42.152Z,18.92
2018-08-13T06:32:10.501Z,18.83
2018-08-13T06:34:39.676Z,18.54
2018-08-13T06:37:09.913Z,18.51
2018-08-13T06:39:38.184Z,18.43
2018-08-13T06:42:06.564Z,18.32
2018-08-13T06:44:35.073Z,18.33
2018-08-13T06:47:03.450Z,18.37
2018-08-13T06:49:31.798Z,18.24
2018-08-13T06:52:00.090Z,18.15
2018-08-13T06:54:28.343Z,18.22
2018-08-13T06:56:56.609Z,18.17
2018-08-13T06:59:24.965Z,18.11
2018-08-13T07:01:53.181Z,18.16
2018-08-13T07:04:21.418Z,18.11
2018-08-13T07:06:49.668Z,18.13
2018-08-13T07:09:17.906Z,17.84
2018-08-13T07:11:46.265Z,17.81
2018-08-13T07:14:14.541Z,18.05
2018-08-13T07:16:42.789Z,18.02
2018-08-13T07:19:11.045Z,17.90
2018-08-13T07:21:39.293Z,17.77
2018-08-13T07:24:07.637Z,17.54
2018-08-13T07:26:35.927Z,17.57
2018-08-13T07:29:04.197Z,17.55
2018-08-13T07:31:32.450Z,17.57
2018-08-13T07:34:00.707Z,17.56
2018-08-13T07:36:28.961Z,17.51
2018-08-13T07:38:57.211Z,17.40
2018-08-13T07:41:25.517Z,17.23
2018-08-13T07:43:53.773Z,17.31
2018-08-13T07:46:22.020Z,17.26
2018-08-13T07:48:50.253Z,17.33
2018-08-13T07:51:18.517Z,17.90
2018-08-13T07:53:49.646Z,17.42
2018-08-13T07:56:17.889Z,17.52
2018-08-13T07:58:46.209Z,17.98
2018-08-13T08:01:14.474Z,18.58
2018-08-13T08:03:42.832Z,18.20
2018-08-13T08:06:11.085Z,18.51
2018-08-13T08:08:39.357Z,18.94
2018-08-13T08:11:07.889Z,19.11
2018-08-13T08:13:36.208Z,19.17
2018-08-13T08:16:04.506Z,19.05
2018-08-13T08:18:32.774Z,19.55
2018-08-13T08:21:01.074Z,19.33
2018-08-13T08:23:29.372Z,19.09
2018-08-13T08:25:57.644Z,19.37
2018-08-13T08:28:25.945Z,19.44
2018-08-13T08:30:54.197Z,19.59
2018-08-13T08:33:22.473Z,19.23
2018-08-13T08:35:50.733Z,19.53
2018-08-13T08:38:19.005Z,19.95
2018-08-13T08:40:47.284Z,20.31
2018-08-13T08:43:15.587Z,20.63
2018-08-13T08:45:43.858Z,20.51
2018-08-13T08:48:12.146Z,20.32
2018-08-13T08:50:40.397Z,20.09
2018-08-13T08:53:08.642Z,19.66
2018-08-13T08:55:36.966Z,19.65
2018-08-13T08:58:05.253Z,20.26
2018-08-13T09:00:33.593Z,19.61
2018-08-13T09:03:01.837Z,20.15
2018-08-13T09:05:30.086Z,20.67
2018-08-13T09:07:58.365Z,20.67
2018-08-13T09:10:26.641Z,20.91
2018-08-13T09:12:54.902Z,20.67
2018-08-13T09:15:23.215Z,20.87
2018-08-13T09:18:02.785Z,20.81
2018-08-13T09:21:44.110Z,20.81
2018-08-13T09:24:23.606Z,21.30
2018-08-13T09:28:06.793Z,19.67
2018-08-13T09:30:46.318Z,19.52
2018-08-13T09:33:25.802Z,19.38
2018-08-13T09:35:54.058Z,19.57
2018-08-13T09:38:22.349Z,20.25
2018-08-13T09:40:50.629Z,20.12
2018-08-13T09:43:18.908Z,20.29
2018-08-13T09:45:47.174Z,20.79
2018-08-13T09:48:15.459Z,19.96
2018-08-13T09:50:43.705Z,19.89
2018-08-13T09:53:11.949Z,19.63
2018-08-13T09:55:40.213Z,18.99
2018-08-13T09:58:08.493Z,19.39
2018-08-13T10:00:42.165Z,19.77
2018-08-13T10:03:10.447Z,18.92
2018-08-13T10:05:38.766Z,19.02
2018-08-13T10:08:07.064Z,19.11
2018-08-13T10:10:35.323Z,19.48
2018-08-13T10:13:03.649Z,19.44
2018-08-13T10:15:31.905Z,19.49
2018-08-13T10:18:00.251Z,19.59
2018-08-13T10:20:28.545Z,19.43
2018-08-13T10:22:56.789Z,19.17
2018-08-13T10:25:25.026Z,19.27
2018-08-13T10:27:53.265Z,19.43
2018-08-13T10:30:21.493Z,19.20
2018-08-13T10:32:49.741Z,19.61
2018-08-13T10:35:18.049Z,20.10
2018-08-13T10:37:46.298Z,19.75
2018-08-13T10:40:16.866Z,20.35
2018-08-13T10:42:45.537Z,19.79
2018-08-13T10:45:14.099Z,19.77
2018-08-13T10:47:42.354Z,20.16
2018-08-13T10:50:12.266Z,20.03
2018-08-13T10:52:40.869Z,20.14
2018-08-13T10:55:10.182Z,20.00
2018-08-13T10:57:38.454Z,19.72
2018-08-13T11:00:08.721Z,19.96
2018-08-13T11:02:37.038Z,20.06
2018-08-13T11:05:06.837Z,20.52
2018-08-13T11:07:35.109Z,20.73
2018-08-13T11:10:03.432Z,20.80
2018-08-13T11:12:31.665Z,21.03
2018-08-13T11:14:59.914Z,21.02
2018-08-13T11:17:28.177Z,21.20
2018-08-13T11:19:57.425Z,21.01
2018-08-13T11:22:25.670Z,20.99
2018-08-13T11:24:53.953Z,21.09
2018-08-13T11:27:22.229Z,21.08
2018-08-13T11:29:50.490Z,21.15
2018-08-13T11:32:19.234Z,21.35
2018-08-13T11:34:47.574Z,21.38
2018-08-13T11:37:15.745Z,21.44
2018-08-13T11:39:43.973Z,21.89
2018-08-13T11:42:12.258Z,22.21
2018-08-13T11:44:40.494Z,22.20
2018-08-13T11:47:08.745Z,22.31
2018-08-13T11:49:37.013Z,22.54
2018-08-13T11:52:05.701Z,22.77
2018-08-13T11:54:33.981Z,22.96
2018-08-13T11:57:02.357Z,23.14
2018-08-13T11:59:30.614Z,23.19
2018-08-13T12:01:58.910Z,23.27
2018-08-13T12:04:27.094Z,23.29
2018-08-13T12:06:55.330Z,23.52
2018-08-13T12:09:23.576Z,23.47
2018-08-13T12:11:51.807Z,23.56
2018-08-13T12:14:20.078Z,23.84
2018-08-13T12:16:48.317Z,24.03
2018-08-13T12:19:16.617Z,24.24
2018-08-13T12:21:44.851Z,24.33
2018-08-13T12:24:13.117Z,24.40
2018-08-13T12:26:41.346Z,24.64
2018-08-13T12:29:09.585Z,24.49
2018-08-13T12:31:37.813Z,24.80
2018-08-13T12:34:06.171Z,25.25
2018-08-13T12:36:34.463Z,25.28
2018-08-13T12:39:02.766Z,24.96
2018-08-13T12:41:31.238Z,24.69
2018-08-13T12:43:59.573Z,24.53
2018-08-13T12:46:27.857Z,24.42
2018-08-13T12:48:56.098Z,24.51
2018-08-13T12:51:24.321Z,24.39
2018-08-13T12:53:52.569Z,24.46
2018-08-13T12:56:20.853Z,24.57
2018-08-13T12:58:49.166Z,24.57
2018-08-13T13:01:18.437Z,24.85
2018-08-13T13:03:46.718Z,25.06
2018-08-13T13:06:14.939Z,24.69
2018-08-13T13:08:43.189Z,24.67
2018-08-13T13:11:13.518Z,24.80
2018-08-13T13:13:41.811Z,24.92
2018-08-13T13:16:10.161Z,25.26
2018-08-13T13:18:38.779Z,25.61
2018-08-13T13:21:07.025Z,25.40
2018-08-13T13:23:38.610Z,24.82
2018-08-13T13:26:06.894Z,24.05
2018-08-13T13:28:35.124Z,23.99
2018-08-13T13:31:03.409Z,23.72
2018-08-13T13:33:31.806Z,23.55
2018-08-13T13:36:00.070Z,23.44
2018-08-13T13:38:28.322Z,23.47
2018-08-13T13:40:56.553Z,23.36
2018-08-13T13:43:24.833Z,23.25
2018-08-13T13:45:53.085Z,23.35
2018-08-13T13:48:21.325Z,23.68
2018-08-13T13:50:49.566Z,24.17
2018-08-13T13:53:17.942Z,24.54
2018-08-13T13:55:46.186Z,24.80
2018-08-13T13:58:14.459Z,24.69
2018-08-13T14:00:42.714Z,24.94
2018-08-13T14:03:10.958Z,25.39
2018-08-13T14:05:39.194Z,25.32
2018-08-13T14:08:07.466Z,25.14
2018-08-13T14:10:36.014Z,25.20
2018-08-13T14:13:04.272Z,25.05
2018-08-13T14:15:32.545Z,24.85
2018-08-13T14:18:00.797Z,24.65
2018-08-13T14:20:29.087Z,24.50
2018-08-13T14:22:57.377Z,24.60
2018-08-13T14:25:25.626Z,24.81
2018-08-13T14:27:53.870Z,25.16
2018-08-13T14:30:29.057Z,24.82
2018-08-13T14:32:57.326Z,24.75
2018-08-13T14:35:25.965Z,24.71
2018-08-13T14:37:54.200Z,24.68
2018-08-13T14:40:22.484Z,24.54
2018-08-13T14:42:50.728Z,24.85
2018-08-13T14:45:19.561Z,25.38
2018-08-13T14:47:49.552Z,25.20
2018-08-13T14:50:17.926Z,25.56
2018-08-13T14:52:47.261Z,25.72
2018-08-13T14:55:17.625Z,25.98
2018-08-13T14:57:45.907Z,26.19
2018-08-13T15:00:24.748Z,26.00
2018-08-13T15:02:53.909Z,25.94
2018-08-13T15:05:22.197Z,25.96
2018-08-13T15:07:50.473Z,25.96
2018-08-13T15:10:20.430Z,25.37
2018-08-13T15:12:48.766Z,25.25
2018-08-13T15:15:17.008Z,25.27
2018-08-13T15:17:45.290Z,25.20
2018-08-13T15:20:15.567Z,24.87
2018-08-13T15:22:43.827Z,24.82
2018-08-13T15:25:12.114Z,25.09
2018-08-13T15:27:40.464Z,24.96
2018-08-13T15:30:11.958Z,24.80
2018-08-13T15:32:40.358Z,24.62
2018-08-13T15:35:08.947Z,24.31
2018-08-13T15:37:37.309Z,24.47
2018-08-13T15:40:05.869Z,24.47
2018-08-13T15:42:34.647Z,24.20
2018-08-13T15:45:02.992Z,24.02
2018-08-13T15:47:31.234Z,24.12
2018-08-13T15:49:59.475Z,23.96
2018-08-13T15:52:27.762Z,24.13
2018-08-13T15:54:56.006Z,24.14
2018-08-13T15:57:24.222Z,24.17
2018-08-13T15:59:52.473Z,24.57
2018-08-13T16:02:20.744Z,24.47
2018-08-13T16:04:49.001Z,24.58
2018-08-13T16:07:17.217Z,24.47
2018-08-13T16:09:45.455Z,24.51
2018-08-13T16:12:13.727Z,24.38
2018-08-13T16:14:41.954Z,24.09
2018-08-13T16:17:10.185Z,24.32
2018-08-13T16:19:38.420Z,24.51
2018-08-13T16:22:06.714Z,24.37
2018-08-13T16:24:35.565Z,24.34
2018-08-13T16:27:03.837Z,24.25
2018-08-13T16:29:32.103Z,24.38
2018-08-13T16:32:00.557Z,24.32
2018-08-13T16:34:28.785Z,24.25
2018-08-13T16:36:57.018Z,24.16
2018-08-13T16:39:25.275Z,24.04
2018-08-13T16:41:53.542Z,23.91
2018-08-13T16:44:21.781Z,23.98
2018-08-13T16:46:50.054Z,23.73
2018-08-13T16:49:18.301Z,23.86
2018-08-13T16:51:46.569Z,23.90
2018-08-13T16:54:14.941Z,23.86
2018-08-13T16:56:43.226Z,23.66
2018-08-13T16:59:11.457Z,23.64
2018-08-13T17:01:39.714Z,23.28
2018-08-13T17:04:08.050Z,23.29
2018-08-13T17:06:36.356Z,23.28
2018-08-13T17:09:06.566Z,23.33
2018-08-13T17:11:34.829Z,23.31
2018-08-13T17:14:04.572Z,23.28
2018-08-13T17:16:32.803Z,22.96
2018-08-13T17:19:01.086Z,23.00
2018-08-13T17:21:29.369Z,23.11
2018-08-13T17:23:57.621Z,23.00
2018-08-13T17:26:25.938Z,22.95
2018-08-13T17:28:54.201Z,22.99
2018-08-13T17:31:22.465Z,23.00
2018-08-13T17:33:50.731Z,23.20
2018-08-13T17:36:18.985Z,23.15
2018-08-13T17:38:47.265Z,23.12
2018-08-13T17:41:15.521Z,23.19
2018-08-13T17:43:43.826Z,23.16
2018-08-13T17:46:12.057Z,23.08
2018-08-13T17:48:40.278Z,22.83
2018-08-13T17:51:08.565Z,23.00
2018-08-13T17:53:36.806Z,22.95
2018-08-13T17:56:05.077Z,22.96
2018-08-13T17:58:33.306Z,22.93
2018-08-13T18:01:01.526Z,22.83
2018-08-13T18:03:29.761Z,22.87
2018-08-13T18:05:58.047Z,22.91
2018-08-13T18:08:26.309Z,22.86
2018-08-13T18:10:54.546Z,22.90
2018-08-13T18:13:22.817Z,22.80
2018-08-13T18:15:51.049Z,22.58
2018-08-13T18:18:19.294Z,22.60
2018-08-13T18:20:49.309Z,22.55
2018-08-13T18:23:17.548Z,22.39
2018-08-13T18:25:46.214Z,22.33
2018-08-13T18:28:14.465Z,22.20
2018-08-13T18:30:42.765Z,22.35
2018-08-13T18:33:11.158Z,22.27
2018-08-13T18:35:39.407Z,22.38
2018-08-13T18:38:07.798Z,22.35
2018-08-13T18:40:36.062Z,22.38
2018-08-13T18:43:04.360Z,22.34
2018-08-13T18:45:32.617Z,22.01
2018-08-13T18:48:01.083Z,22.07
2018-08-13T18:50:29.347Z,21.95
2018-08-13T18:52:57.575Z,22.09
2018-08-13T18:55:26.205Z,21.92
2018-08-13T18:57:54.905Z,22.07
2018-08-13T19:00:28.765Z,21.89
2018-08-13T19:02:57.934Z,21.93
2018-08-13T19:05:26.194Z,21.90
2018-08-13T19:07:54.406Z,21.77
2018-08-13T19:10:22.837Z,21.62
2018-08-13T19:12:51.097Z,21.79
2018-08-13T19:15:21.532Z,21.85
2018-08-13T19:17:50.078Z,21.83
2018-08-13T19:20:18.369Z,21.76
2018-08-13T19:22:46.699Z,21.73
2018-08-13T19:25:16.635Z,21.67
2018-08-13T19:27:45.326Z,21.64
2018-08-13T19:30:15.370Z,21.67
2018-08-13T19:32:44.369Z,21.49
2018-08-13T19:35:12.626Z,21.47
2018-08-13T19:37:40.926Z,21.77
2018-08-13T19:40:12.625Z,21.66
2018-08-13T19:42:40.875Z,21.86
2018-08-13T19:45:10.388Z,21.61
2018-08-13T19:47:38.633Z,21.46
2018-08-13T19:50:08.665Z,21.64
2018-08-13T19:52:37.083Z,21.73
2018-08-13T19:55:05.557Z,21.71
2018-08-13T19:57:33.831Z,21.56
2018-08-13T20:00:02.234Z,21.43
2018-08-13T20:02:30.472Z,21.61
2018-08-13T20:04:59.161Z,21.42
2018-08-13T20:07:27.433Z,21.38
2018-08-13T20:09:55.678Z,21.67
2018-08-13T20:12:24.017Z,21.60
2018-08-13T20:14:52.241Z,21.44
2018-08-13T20:17:21.679Z,21.11
2018-08-13T20:19:49.974Z,21.21
2018-08-13T20:22:18.198Z,21.17
2018-08-13T20:24:46.542Z,20.92
2018-08-13T20:27:14.749Z,21.03
2018-08-13T20:29:43.093Z,20.55
2018-08-13T20:32:11.433Z,20.88
2018-08-13T20:34:39.701Z,20.82
2018-08-13T20:37:08.044Z,20.78
2018-08-13T20:39:36.206Z,20.74
2018-08-13T20:42:04.521Z,20.78
2018-08-13T20:44:32.776Z,20.67
2018-08-13T20:47:01.061Z,20.56
2018-08-13T20:49:29.490Z,20.32
2018-08-13T20:51:57.729Z,20.43
2018-08-13T20:54:26.817Z,20.29
2018-08-13T20:56:55.072Z,20.24
2018-08-13T20:59:23.329Z,20.28
2018-08-13T21:01:51.574Z,20.38
2018-08-13T21:04:19.810Z,20.41
2018-08-13T21:06:48.077Z,20.32
2018-08-13T21:09:16.406Z,20.18
2018-08-13T21:11:44.632Z,20.29
2018-08-13T21:14:12.917Z,20.15
2018-08-13T21:16:41.193Z,20.10
2018-08-13T21:19:09.482Z,20.04
2018-08-13T21:21:37.695Z,19.99
2018-08-13T21:24:06.170Z,19.95
2018-08-13T21:26:34.482Z,19.88
2018-08-13T21:29:02.973Z,19.95
2018-08-13T21:31:31.233Z,19.75
2018-08-13T21:33:59.457Z,19.82
2018-08-13T21:36:27.735Z,19.65
2018-08-13T21:38:56.837Z,19.60
2018-08-13T21:41:26.446Z,19.76
2018-08-13T21:43:54.698Z,19.70
2018-08-13T21:46:23.008Z,19.69
2018-08-13T21:48:51.298Z,19.64
2018-08-13T21:51:19.713Z,19.54
2018-08-13T21:53:47.949Z,19.48
2018-08-13T21:56:16.205Z,19.58
2018-08-13T21:58:44.490Z,19.66
2018-08-13T22:01:18.277Z,19.41
2018-08-13T22:03:46.518Z,19.44
2018-08-13T22:06:14.770Z,19.45
2018-08-13T22:08:43.026Z,19.44
2018-08-13T22:11:11.646Z,19.45
2018-08-13T22:13:39.930Z,19.47
2018-08-13T22:16:08.227Z,19.37
2018-08-13T22:18:36.473Z,19.35
2018-08-13T22:21:04.745Z,19.26
2018-08-13T22:23:33.125Z,19.31
2018-08-13T22:26:01.381Z,19.02
2018-08-13T22:28:29.621Z,19.05
2018-08-13T22:30:57.915Z,19.04
2018-08-13T22:33:26.140Z,19.08
2018-08-13T22:35:54.397Z,18.95
2018-08-13T22:38:22.638Z,19.07
2018-08-13T22:40:50.877Z,19.04
2018-08-13T22:43:19.141Z,19.06
2018-08-13T22:45:47.380Z,19.24
2018-08-13T22:48:15.625Z,19.10
2018-08-13T22:50:43.841Z,19.14
2018-08-13T22:53:12.065Z,19.26
2018-08-13T22:55:40.313Z,19.26
2018-08-13T22:58:08.741Z,19.33
2018-08-13T23:00:36.951Z,19.18
2018-08-13T23:03:05.254Z,19.17
2018-08-13T23:05:33.513Z,19.27
2018-08-13T23:08:01.780Z,19.25
2018-08-13T23:10:30.021Z,19.22
2018-08-13T23:12:58.282Z,19.17
2018-08-13T23:15:26.578Z,19.08
2018-08-13T23:17:55.014Z,19.20
2018-08-13T23:20:25.091Z,19.37
2018-08-13T23:22:58.281Z,19.33
2018-08-13T23:25:27.101Z,19.26
2018-08-13T23:27:56.545Z,19.30
2018-08-13T23:30:24.833Z,18.95
2018-08-13T23:32:54.206Z,19.21
2018-08-13T23:35:23.205Z,19.03
2018-08-13T23:37:51.757Z,19.16
2018-08-13T23:40:19.973Z,19.22
2018-08-13T23:42:48.373Z,19.28
2018-08-13T23:45:20.822Z,19.38
2018-08-13T23:47:49.137Z,19.43
2018-08-13T23:50:20.717Z,19.40
2018-08-13T23:52:49.918Z,19.37
2018-08-13T23:55:32.141Z,19.44
2018-08-13T23:58:00.754Z,19.43
